createdAt,value
2024-04-16T00:00:32.700Z,90091.66
2024-04-16T00:03:17.735Z,90094.78
2024-04-16T00:06:02.714Z,90078.44
2024-04-16T00:08:47.612Z,90092.03
2024-04-16T00:11:32.640Z,90082.09
2024-04-16T00:14:17.617Z,90076.59
2024-04-16T00:17:02.770Z,90084.84
2024-04-16T00:19:47.627Z,90086.31
2024-04-16T00:22:32.756Z,90086.31
2024-04-16T00:25:17.800Z,90070.34
2024-04-16T00:28:02.762Z,90078.47
2024-04-16T00:30:47.676Z,90070.19
2024-04-16T00:33:32.669Z,90080.22
2024-04-16T00:36:17.655Z,90084.31
2024-04-16T00:39:02.720Z,90089.75
2024-04-16T00:41:47.714Z,90093.78
2024-04-16T00:44:32.857Z,90090.16
2024-04-16T00:47:17.781Z,90092.50
2024-04-16T00:50:02.790Z,90087.47
2024-04-16T00:52:47.664Z,90077.22
2024-04-16T00:55:32.980Z,90087.34
2024-04-16T00:58:18.056Z,90094.34
2024-04-16T01:01:03.553Z,90096.00
2024-04-16T01:03:48.564Z,90092.97
2024-04-16T01:06:33.641Z,90080.53
2024-04-16T01:09:18.652Z,90088.63
2024-04-16T01:12:03.674Z,90077.81
2024-04-16T01:14:48.830Z,90079.69
2024-04-16T01:17:33.912Z,90076.84
2024-04-16T01:20:18.727Z,90072.66
2024-04-16T01:23:03.870Z,90079.59
2024-04-16T01:25:48.866Z,90081.22
2024-04-16T01:28:34.021Z,90092.22
2024-04-16T01:31:18.978Z,90097.72
2024-04-16T01:34:03.953Z,90101.75
2024-04-16T01:36:48.893Z,90097.69
2024-04-16T01:39:35.181Z,90094.06
2024-04-16T01:42:21.825Z,90084.09
2024-04-16T01:45:06.828Z,90090.00
2024-04-16T01:47:51.995Z,90088.81
2024-04-16T01:50:36.853Z,90074.72
2024-04-16T01:53:21.855Z,90074.72
2024-04-16T01:56:06.986Z,90075.38
2024-04-16T01:58:52.523Z,90069.78
2024-04-16T02:01:37.824Z,90068.28
2024-04-16T02:04:22.674Z,90071.41
2024-04-16T02:07:07.752Z,90077.47
2024-04-16T02:09:52.649Z,90072.38
2024-04-16T02:12:37.764Z,90070.41
2024-04-16T02:15:22.721Z,90072.31
2024-04-16T02:18:07.673Z,90051.13
2024-04-16T02:20:52.803Z,90034.53
2024-04-16T02:23:37.753Z,90044.34
2024-04-16T02:26:22.787Z,90042.78
2024-04-16T02:29:07.691Z,90033.75
2024-04-16T02:31:52.768Z,90027.81
2024-04-16T02:34:37.795Z,90029.66
2024-04-16T02:37:22.941Z,90020.97
2024-04-16T02:40:08.099Z,90024.06
2024-04-16T02:42:53.198Z,90027.94
2024-04-16T02:45:38.224Z,90016.56
2024-04-16T02:48:23.204Z,90009.66
2024-04-16T02:51:08.145Z,90010.03
2024-04-16T02:53:53.123Z,90009.56
2024-04-16T02:56:38.357Z,90008.00
2024-04-16T02:59:23.344Z,90009.47
2024-04-16T03:02:08.339Z,90006.31
2024-04-16T03:04:53.415Z,89993.50
2024-04-16T03:07:38.468Z,89997.72
2024-04-16T03:10:23.476Z,89990.97
2024-04-16T03:13:08.498Z,89979.09
2024-04-16T03:15:53.451Z,89976.19
2024-04-16T03:18:38.391Z,89978.69
2024-04-16T03:21:25.958Z,89962.94
2024-04-16T03:24:11.748Z,89968.75
2024-04-16T03:26:56.741Z,89971.13
2024-04-16T03:29:41.758Z,89966.81
2024-04-16T03:32:26.808Z,89967.47
2024-04-16T03:35:12.228Z,89951.94
2024-04-16T03:37:57.287Z,89958.41
2024-04-16T03:40:42.306Z,89960.31
2024-04-16T03:43:27.385Z,89955.94
2024-04-16T03:52:18.627Z,89956.59
2024-04-16T03:55:03.425Z,89950.84
2024-04-16T03:57:48.407Z,89952.34
2024-04-16T04:00:33.445Z,89953.94
2024-04-16T04:03:18.399Z,89949.09
2024-04-16T04:06:03.344Z,89948.53
2024-04-16T04:08:48.429Z,89941.34
2024-04-16T04:11:33.543Z,89957.00
2024-04-16T04:14:18.591Z,89949.13
2024-04-16T04:17:03.690Z,89951.88
2024-04-16T04:19:48.724Z,89956.84
2024-04-16T04:22:33.978Z,89975.28
2024-04-16T04:25:18.993Z,89967.28
2024-04-16T04:28:03.998Z,89972.84
2024-04-16T04:30:49.113Z,89967.22
2024-04-16T04:33:34.070Z,89969.09
2024-04-16T04:36:19.126Z,89973.28
2024-04-16T04:39:04.178Z,89968.84
2024-04-16T04:41:49.218Z,89978.44
2024-04-16T04:44:34.492Z,89979.34
2024-04-16T04:47:23.695Z,89964.22
2024-04-16T04:50:09.304Z,89967.69
2024-04-16T04:52:54.305Z,89980.44
2024-04-16T04:55:39.490Z,89987.09
2024-04-16T04:58:25.493Z,89991.84
2024-04-16T05:01:10.550Z,89989.38
2024-04-16T05:03:55.673Z,89990.38
2024-04-16T05:06:40.652Z,90002.53
2024-04-16T05:09:25.739Z,90008.94
2024-04-16T05:12:13.964Z,90022.41
2024-04-16T05:15:00.482Z,90032.19
2024-04-16T05:17:45.585Z,90025.44
2024-04-16T05:20:30.450Z,90034.44
2024-04-16T05:23:15.334Z,90048.13
2024-04-16T05:26:02.811Z,90046.28
2024-04-16T05:28:48.929Z,90059.34
2024-04-16T05:31:34.064Z,90065.63
2024-04-16T05:34:19.108Z,90067.78
2024-04-16T05:37:07.522Z,90080.41
2024-04-16T05:39:52.459Z,90073.69
2024-04-16T05:42:37.424Z,90083.69
2024-04-16T05:45:22.498Z,90083.47
2024-04-16T05:48:07.648Z,90087.41
2024-04-16T05:50:52.530Z,90090.81
2024-04-16T05:53:37.679Z,90083.38
2024-04-16T05:56:22.719Z,90093.84
2024-04-16T05:59:07.720Z,90091.00
2024-04-16T06:01:52.824Z,90089.44
2024-04-16T06:04:38.239Z,90092.06
2024-04-16T06:07:23.288Z,90086.78
2024-04-16T06:10:08.229Z,90088.72
2024-04-16T06:12:53.424Z,90099.38
2024-04-16T06:15:38.482Z,90094.28
2024-04-16T06:18:23.591Z,90093.69
2024-04-16T06:21:08.603Z,90105.97
2024-04-16T06:23:53.678Z,90093.53
2024-04-16T06:26:38.645Z,90107.44
2024-04-16T06:29:23.634Z,90106.91
2024-04-16T06:32:08.801Z,90108.28
2024-04-16T06:34:53.785Z,90109.84
2024-04-16T06:37:38.983Z,90106.59
2024-04-16T06:40:23.923Z,90112.19
2024-04-16T06:43:09.419Z,90097.75
2024-04-16T06:45:54.355Z,90100.31
2024-04-16T06:48:39.540Z,90094.69
2024-04-16T06:51:24.759Z,90101.78
2024-04-16T06:54:09.742Z,90095.41
2024-04-16T06:56:54.781Z,90098.31
2024-04-16T06:59:39.729Z,90099.75
2024-04-16T07:02:24.765Z,90107.00
2024-04-16T07:05:09.737Z,90110.41
2024-04-16T07:07:54.879Z,90107.69
2024-04-16T07:10:40.115Z,90124.56
2024-04-16T07:13:25.629Z,90120.41
2024-04-16T07:16:10.613Z,90125.69
2024-04-16T07:18:55.665Z,90128.78
2024-04-16T07:21:40.834Z,90119.00
2024-04-16T07:24:25.839Z,90125.88
2024-04-16T07:27:10.904Z,90123.88
2024-04-16T07:29:55.851Z,90128.94
2024-04-16T07:32:41.216Z,90115.78
2024-04-16T07:35:26.845Z,90135.59
2024-04-16T07:38:11.840Z,90136.66
2024-04-16T07:40:56.879Z,90140.34
2024-04-16T07:43:41.947Z,90140.25
2024-04-16T07:46:26.947Z,90147.50
2024-04-16T07:49:11.903Z,90149.28
2024-04-16T07:51:56.879Z,90133.31
2024-04-16T07:54:41.864Z,90139.28
2024-04-16T07:57:26.983Z,90140.13
2024-04-16T08:00:12.000Z,90140.66
2024-04-16T08:02:56.891Z,90146.16
2024-04-16T08:05:42.004Z,90152.06
2024-04-16T08:08:34.811Z,90162.63
2024-04-16T08:11:21.666Z,90165.13
2024-04-16T08:14:09.041Z,90155.00
2024-04-16T08:16:54.895Z,90152.34
2024-04-16T08:19:39.894Z,90151.88
2024-04-16T08:22:24.892Z,90168.03
2024-04-16T08:25:14.645Z,90155.94
2024-04-16T08:27:59.628Z,90167.34
2024-04-16T08:30:44.692Z,90164.97
2024-04-16T08:33:30.034Z,90165.53
2024-04-16T08:36:15.212Z,90170.41
2024-04-16T08:39:00.416Z,90177.25
2024-04-16T08:41:45.325Z,90177.38
2024-04-16T08:44:30.620Z,90177.44
2024-04-16T08:47:15.553Z,90165.00
2024-04-16T08:50:00.648Z,90180.06
2024-04-16T08:52:45.714Z,90183.13
2024-04-16T08:55:30.739Z,90185.72
2024-04-16T08:58:15.843Z,90175.88
2024-04-16T09:01:01.046Z,90185.72
2024-04-16T09:03:45.984Z,90178.19
2024-04-16T09:06:30.944Z,90176.69
2024-04-16T09:09:15.940Z,90181.53
2024-04-16T09:12:01.062Z,90173.56
2024-04-16T09:14:46.051Z,90176.41
2024-04-16T09:17:31.391Z,90185.00
2024-04-16T09:20:16.596Z,90168.69
2024-04-16T09:23:04.983Z,90171.09
2024-04-16T09:25:52.101Z,90171.00
2024-04-16T09:28:37.071Z,90163.66
2024-04-16T09:31:22.172Z,90158.81
2024-04-16T09:34:07.116Z,90167.81
2024-04-16T09:36:52.079Z,90167.63
2024-04-16T09:39:37.075Z,90173.63
2024-04-16T09:42:22.118Z,90175.13
2024-04-16T09:45:07.127Z,90174.59
2024-04-16T09:47:52.221Z,90168.31
2024-04-16T09:50:46.887Z,90182.13
2024-04-16T09:53:39.240Z,90179.94
2024-04-16T09:56:24.309Z,90197.38
2024-04-16T09:59:09.452Z,90184.34
2024-04-16T10:01:54.411Z,90187.72
2024-04-16T10:04:39.557Z,90176.84
2024-04-16T10:07:24.495Z,90184.78
2024-04-16T10:10:09.703Z,90178.78
2024-04-16T10:12:54.500Z,90177.59
2024-04-16T10:15:39.530Z,90189.13
2024-04-16T10:18:24.769Z,90194.56
2024-04-16T10:21:09.720Z,90196.72
2024-04-16T10:23:54.787Z,90195.78
2024-04-16T10:26:39.904Z,90195.47
2024-04-16T10:29:25.114Z,90190.50
2024-04-16T10:32:10.811Z,90195.78
2024-04-16T10:34:56.059Z,90177.59
2024-04-16T10:37:41.329Z,90196.31
2024-04-16T10:40:26.299Z,90184.69
2024-04-16T10:43:11.481Z,90169.09
2024-04-16T10:45:56.553Z,90179.91
2024-04-16T10:48:41.531Z,90182.88
2024-04-16T10:51:26.530Z,90173.56
2024-04-16T10:54:11.675Z,90176.50
2024-04-16T10:56:56.634Z,90166.22
2024-04-16T10:59:48.711Z,90167.94
2024-04-16T11:02:39.315Z,90152.59
2024-04-16T11:05:24.452Z,90150.03
2024-04-16T11:08:09.559Z,90161.22
2024-04-16T11:10:54.486Z,90155.19
2024-04-16T11:13:39.588Z,90150.00
2024-04-16T11:16:24.470Z,90157.97
2024-04-16T11:19:09.581Z,90144.91
2024-04-16T11:21:54.406Z,90137.03
2024-04-16T11:24:39.376Z,90134.91
2024-04-16T11:27:24.477Z,90138.13
2024-04-16T11:30:09.461Z,90146.44
2024-04-16T11:32:54.691Z,90126.72
2024-04-16T11:35:39.624Z,90139.69
2024-04-16T11:38:24.783Z,90138.91
2024-04-16T11:41:12.741Z,90132.78
2024-04-16T11:43:58.732Z,90132.38
2024-04-16T11:46:43.810Z,90127.91
2024-04-16T11:49:29.256Z,90131.53
2024-04-16T11:52:14.511Z,90138.72
2024-04-16T11:54:59.530Z,90127.44
2024-04-16T11:57:44.668Z,90132.63
2024-04-16T12:00:29.821Z,90134.28
2024-04-16T12:03:14.855Z,90138.03
2024-04-16T12:05:59.913Z,90129.97
2024-04-16T12:08:44.946Z,90127.47
2024-04-16T12:11:29.945Z,90134.91
2024-04-16T12:14:14.895Z,90135.41
2024-04-16T12:16:59.877Z,90136.66
2024-04-16T12:19:44.795Z,90137.72
2024-04-16T12:22:29.823Z,90141.28
2024-04-16T12:25:14.820Z,90133.63
2024-04-16T12:27:59.837Z,90130.13
2024-04-16T12:30:44.915Z,90131.84
2024-04-16T12:33:29.850Z,90131.78
2024-04-16T12:36:14.840Z,90134.78
2024-04-16T12:38:59.729Z,90134.22
2024-04-16T12:41:45.011Z,90144.06
2024-04-16T12:44:30.084Z,90147.63
2024-04-16T12:47:14.975Z,90141.69
2024-04-16T12:50:00.173Z,90144.69
2024-04-16T12:52:45.161Z,90149.41
2024-04-16T12:55:30.263Z,90138.19
2024-04-16T12:58:15.201Z,90142.91
2024-04-16T13:01:00.134Z,90137.78
2024-04-16T13:03:45.136Z,90138.88
2024-04-16T13:06:30.284Z,90141.75
2024-04-16T13:09:15.215Z,90146.75
2024-04-16T13:12:00.081Z,90154.91
2024-04-16T13:14:45.340Z,90137.53
2024-04-16T13:17:30.348Z,90137.16
2024-04-16T13:20:15.408Z,90140.13
2024-04-16T13:23:00.471Z,90142.16
2024-04-16T13:25:45.653Z,90141.75
2024-04-16T13:28:30.578Z,90137.50
2024-04-16T13:31:15.694Z,90160.03
2024-04-16T13:34:00.895Z,90148.94
2024-04-16T13:36:45.903Z,90140.25
2024-04-16T13:39:31.040Z,90140.53
2024-04-16T13:42:15.894Z,90147.66
2024-04-16T13:45:00.822Z,90130.72
2024-04-16T13:47:46.060Z,90131.47
2024-04-16T13:50:30.893Z,90134.53
2024-04-16T13:53:15.958Z,90128.78
2024-04-16T13:56:00.962Z,90124.19
2024-04-16T13:58:46.027Z,90112.19
2024-04-16T14:01:30.920Z,90129.16
2024-04-16T14:04:16.056Z,90107.88
2024-04-16T14:07:00.953Z,90100.72
2024-04-16T14:09:46.139Z,90099.41
2024-04-16T14:12:31.245Z,90104.06
2024-04-16T14:15:16.212Z,90093.59
2024-04-16T14:18:01.418Z,90092.44
2024-04-16T14:20:46.428Z,90098.84
2024-04-16T14:23:31.717Z,90084.59
2024-04-16T14:26:16.750Z,90081.06
2024-04-16T14:29:01.687Z,90088.84
2024-04-16T14:31:46.860Z,90078.16
2024-04-16T14:34:32.214Z,90080.22
2024-04-16T14:37:17.308Z,90089.41
2024-04-16T14:40:02.268Z,90072.25
2024-04-16T14:42:47.418Z,90053.78
2024-04-16T14:45:32.324Z,90045.25
2024-04-16T14:48:17.548Z,90045.13
2024-04-16T14:51:02.495Z,90051.31
2024-04-16T14:53:47.571Z,90033.97
2024-04-16T14:56:32.652Z,90028.16
2024-04-16T14:59:17.557Z,90033.13
2024-04-16T15:02:02.714Z,90033.44
2024-04-16T15:04:47.633Z,90036.78
2024-04-16T15:07:32.557Z,90025.72
2024-04-16T15:10:17.515Z,90030.16
2024-04-16T15:13:02.435Z,90039.78
2024-04-16T15:15:47.400Z,90034.06
2024-04-16T15:18:32.491Z,90044.59
2024-04-16T15:21:17.520Z,90036.75
2024-04-16T15:24:02.389Z,90044.78
2024-04-16T15:26:47.576Z,90029.38
2024-04-16T15:29:32.413Z,90038.66
2024-04-16T15:32:17.477Z,90036.22
2024-04-16T15:35:02.582Z,90036.66
2024-04-16T15:37:47.672Z,90045.66
2024-04-16T15:40:32.820Z,90046.78
2024-04-16T15:43:18.918Z,90052.94
2024-04-16T15:46:04.231Z,90054.59
2024-04-16T15:48:49.203Z,90062.91
2024-04-16T15:51:34.370Z,90058.00
2024-04-16T15:54:19.343Z,90060.97
2024-04-16T15:57:04.390Z,90069.78
2024-04-16T15:59:49.518Z,90064.72
2024-04-16T16:02:34.573Z,90063.56
2024-04-16T16:05:19.511Z,90075.94
2024-04-16T16:08:06.223Z,90075.13
2024-04-16T16:10:51.397Z,90074.56
2024-04-16T16:13:36.218Z,90075.06
2024-04-16T16:16:21.296Z,90091.19
2024-04-16T16:19:08.369Z,90086.31
2024-04-16T16:21:53.490Z,90086.38
2024-04-16T16:24:38.621Z,90089.34
2024-04-16T16:27:23.532Z,90079.53
2024-04-16T16:30:08.684Z,90089.59
2024-04-16T16:32:53.861Z,90086.31
2024-04-16T16:35:38.776Z,90087.38
2024-04-16T16:38:23.878Z,90097.34
2024-04-16T16:41:08.871Z,90093.09
2024-04-16T16:43:53.958Z,90101.13
2024-04-16T16:46:38.981Z,90106.50
2024-04-16T16:49:23.971Z,90107.03
2024-04-16T16:52:10.731Z,90114.88
2024-04-16T16:54:55.614Z,90106.13
2024-04-16T16:57:40.609Z,90105.47
2024-04-16T17:00:25.562Z,90107.69
2024-04-16T17:03:10.746Z,90118.22
2024-04-16T17:05:55.638Z,90109.16
2024-04-16T17:08:40.639Z,90099.25
2024-04-16T17:11:25.884Z,90106.72
2024-04-16T17:14:11.133Z,90109.78
2024-04-16T17:16:56.518Z,90102.50
2024-04-16T17:19:41.463Z,90104.81
2024-04-16T17:22:26.459Z,90103.03
2024-04-16T17:25:11.421Z,90108.72
2024-04-16T17:27:56.420Z,90100.38
2024-04-16T17:30:41.504Z,90101.97
2024-04-16T17:33:26.367Z,90099.25
2024-04-16T17:36:11.367Z,90107.47
2024-04-16T17:38:56.126Z,90106.94
2024-04-16T17:41:41.255Z,90101.03
2024-04-16T17:44:26.226Z,90107.59
2024-04-16T17:47:11.465Z,90099.66
2024-04-16T17:49:56.366Z,90103.38
2024-04-16T17:52:41.389Z,90098.72
2024-04-16T17:55:26.581Z,90099.16
2024-04-16T17:58:11.412Z,90107.78
2024-04-16T18:00:56.451Z,90102.63
2024-04-16T18:03:41.418Z,90106.63
2024-04-16T18:06:26.588Z,90099.97
2024-04-16T18:09:11.773Z,90098.50
2024-04-16T18:11:56.815Z,90092.91
2024-04-16T18:14:42.034Z,90093.41
2024-04-16T18:17:27.065Z,90095.84
2024-04-16T18:20:12.281Z,90093.63
2024-04-16T18:22:57.422Z,90097.63
2024-04-16T18:25:42.372Z,90091.09
2024-04-16T18:28:32.543Z,90091.91
2024-04-16T18:31:18.335Z,90099.31
2024-04-16T18:34:03.483Z,90106.53
2024-04-16T18:36:48.536Z,90098.31
2024-04-16T18:39:33.639Z,90106.31
2024-04-16T18:42:18.833Z,90099.44
2024-04-16T18:45:10.769Z,90092.75
2024-04-16T18:47:55.675Z,90082.09
2024-04-16T18:50:40.615Z,90093.75
2024-04-16T18:53:25.612Z,90091.16
2024-04-16T18:56:10.783Z,90091.88
2024-04-16T18:58:55.730Z,90092.50
2024-04-16T19:01:40.887Z,90085.91
2024-04-16T19:04:25.726Z,90090.19
2024-04-16T19:07:10.706Z,90094.63
2024-04-16T19:09:55.881Z,90092.88
2024-04-16T19:12:40.821Z,90091.06
2024-04-16T19:15:25.950Z,90093.81
2024-04-16T19:18:11.052Z,90084.41
2024-04-16T19:20:56.176Z,90079.47
2024-04-16T19:23:41.175Z,90078.88
2024-04-16T19:26:26.119Z,90074.53
2024-04-16T19:29:11.286Z,90074.78
2024-04-16T19:31:57.495Z,90080.63
2024-04-16T19:34:42.466Z,90076.97
2024-04-16T19:37:27.489Z,90074.91
2024-04-16T19:40:12.713Z,90063.97
2024-04-16T19:42:57.835Z,90067.97
2024-04-16T19:45:42.759Z,90068.66
2024-04-16T19:48:27.933Z,90077.91
2024-04-16T19:51:12.842Z,90078.34
2024-04-16T19:53:58.101Z,90075.56
2024-04-16T19:56:42.988Z,90084.59
2024-04-16T19:59:28.072Z,90088.94
2024-04-16T20:02:13.026Z,90087.75
2024-04-16T20:04:58.056Z,90083.16
2024-04-16T20:07:43.189Z,90079.81
2024-04-16T20:10:28.241Z,90076.56
2024-04-16T20:13:13.314Z,90088.09
2024-04-16T20:15:58.220Z,90080.06
2024-04-16T20:18:43.314Z,90080.59
2024-04-16T20:21:28.145Z,90083.03
2024-04-16T20:24:12.995Z,90086.59
2024-04-16T20:26:57.983Z,90083.50
2024-04-16T20:29:42.963Z,90076.28
2024-04-16T20:32:28.126Z,90075.38
2024-04-16T20:35:13.207Z,90073.34
2024-04-16T20:37:58.130Z,90078.72
2024-04-16T20:40:43.061Z,90083.00
2024-04-16T20:43:28.254Z,90072.06
2024-04-16T20:46:13.134Z,90069.97
2024-04-16T20:48:58.116Z,90078.75
2024-04-16T20:51:43.354Z,90068.84
2024-04-16T20:54:28.334Z,90075.25
2024-04-16T20:57:13.497Z,90080.78
2024-04-16T20:59:58.527Z,90081.53
2024-04-16T21:02:43.793Z,90084.91
2024-04-16T21:05:28.733Z,90082.50
2024-04-16T21:08:13.722Z,90091.94
2024-04-16T21:10:59.068Z,90093.06
2024-04-16T21:13:43.957Z,90082.41
2024-04-16T21:16:28.928Z,90082.63
2024-04-16T21:19:13.914Z,90093.50
2024-04-16T21:21:59.120Z,90100.53
2024-04-16T21:24:44.179Z,90095.34
2024-04-16T21:27:29.278Z,90091.44
2024-04-16T21:30:14.412Z,90092.25
2024-04-16T21:32:59.598Z,90097.84
2024-04-16T21:35:45.193Z,90089.06
2024-04-16T21:38:30.306Z,90099.50
2024-04-16T21:41:15.455Z,90093.28
2024-04-16T21:44:00.392Z,90100.94
2024-04-16T21:46:45.502Z,90092.41
2024-04-16T21:49:30.533Z,90092.56
2024-04-16T21:52:15.412Z,90089.63
2024-04-16T21:55:00.528Z,90094.22
2024-04-16T21:57:45.489Z,90087.28
2024-04-16T22:00:30.598Z,90089.25
2024-04-16T22:03:15.690Z,90097.66
2024-04-16T22:06:01.353Z,90089.06
2024-04-16T22:08:46.361Z,90095.16
2024-04-16T22:11:31.399Z,90096.09
2024-04-16T22:14:16.371Z,90099.09
2024-04-16T22:17:01.499Z,90089.28
2024-04-16T22:19:47.059Z,90088.31
2024-04-16T22:22:31.939Z,90092.59
2024-04-16T22:25:17.022Z,90086.63
2024-04-16T22:28:01.791Z,90087.75
2024-04-16T22:30:46.918Z,90089.97
2024-04-16T22:33:31.996Z,90091.75
2024-04-16T22:36:19.574Z,90081.69
2024-04-16T22:39:06.603Z,90083.69
2024-04-16T22:41:51.693Z,90084.84
2024-04-16T22:44:36.819Z,90087.72
2024-04-16T22:47:21.867Z,90088.28
2024-04-16T22:50:06.773Z,90091.03
2024-04-16T22:52:51.779Z,90092.75
2024-04-16T22:55:36.760Z,90088.53
2024-04-16T22:58:21.864Z,90109.09
2024-04-16T23:01:06.745Z,90105.91
2024-04-16T23:03:51.875Z,90099.44
2024-04-16T23:06:36.968Z,90110.63
2024-04-16T23:09:21.954Z,90110.63
2024-04-16T23:12:07.158Z,90101.03
2024-04-16T23:14:52.150Z,90103.31
2024-04-16T23:17:37.291Z,90096.41
2024-04-16T23:20:22.278Z,90095.72
2024-04-16T23:23:07.322Z,90082.41
2024-04-16T23:25:52.658Z,90079.44
2024-04-16T23:28:37.852Z,90080.41
2024-04-16T23:31:22.967Z,90085.94
2024-04-16T23:34:08.014Z,90088.59
2024-04-16T23:36:52.978Z,90081.91
2024-04-16T23:39:37.924Z,90077.16
2024-04-16T23:42:23.001Z,90066.78
2024-04-16T23:45:08.250Z,90064.50
2024-04-16T23:47:53.388Z,90059.00
2024-04-16T23:50:38.385Z,90061.53
2024-04-16T23:53:23.408Z,90059.38
2024-04-16T23:56:08.486Z,90061.72
2024-04-16T23:58:53.447Z,90056.03
